Airport View

Enter AWOS ICAO identifier for current METAR.

ex. KFNL

KPKV 262015Z AUTO 33019G27KT 10SM CLR 15/M01 A3038 RMK AO2 T01471011

26 Feb 2020 20:31

Frequency: 118.275

Phone: 361-552-3060

Other Area AWOS: KVCT - KPSX - KRKP - KARM

TAF KVCT 261733Z 2618/2718 34020G28KT P6SM FEW060 FM262100 34016G23KT P6SM FEW060 FM270100 33005KT P6SM SKC FM271400 VRB03KT P6SM SKC